Latest Weather Observations for Evans Head

IDN60801

Issued at 3:03 pm EST Friday 31 July 2015 (issued every 30 minutes, with the page automatically refreshed every 10 minutes)

About weather observations | Map of weather stations | Latest weather observations for NSW | Other Formats
Station Details ID: 058212 Name: EVANS HEAD RAAF BOMBING RANGE AWS Lat: -29.18 Lon: 153.40 Height: 62.5 m
Data from the previous 72 hours. | See also: Recent months at Evans Head
Date/Time
EST
Temp
°C
App
Temp
°C
Dew
Point
Rel
Hum
%
Delta-T
°C
Wind Press
QNH
hPa
Press
MSL
hPa
Rain
since 9 am
mm
Dir
 
Spd
km/h
Gust
km/h
Spd
kts
Gust
kts
31/03:00pm 19.4 17.6 9.6 53 5.2 E 9 13 5 7 1020.2 1020.1 0.0
31/02:30pm 19.8 17.8 10.0 53 5.3 E 11 17 6 9 1020.4 1020.4 0.0
31/02:00pm 19.9 17.3 9.2 50 5.7 SE 13 17 7 9 1020.5 1020.5 0.0
31/01:30pm 20.3 17.5 10.1 52 5.5 SE 15 20 8 11 1020.6 1020.6 0.0
31/01:00pm 21.0 18.5 9.6 48 6.1 S 13 20 7 11 1020.9 1020.9 0.0
31/12:30pm 20.6 18.5 8.3 45 6.4 W 9 17 5 9 1021.2 1021.2 0.0
31/12:00pm 20.1 17.4 7.5 44 6.4 WSW 11 19 6 10 1021.7 1021.7 0.0
31/11:30am 20.4 18.5 9.0 48 6.0 WNW 9 15 5 8 1022.1 1022.1 0.0
31/11:00am 20.9 18.8 11.3 54 5.3 NNW 13 19 7 10 1022.4 1022.4 0.0
31/10:30am 19.9 17.6 10.6 55 5.1 NW 13 19 7 10 1022.7 1022.7 0.0
31/10:00am 18.6 15.9 10.2 58 4.5 NW 15 22 8 12 1022.9 1022.9 0.0
31/09:30am 17.6 14.8 11.2 66 3.5 NW 17 24 9 13 1022.9 1022.9 0.0
31/09:00am 17.1 15.8 13.8 81 1.9 NW 13 26 7 14 1022.8 1022.8 0.2
31/08:30am 14.9 13.8 14.4 97 0.3 NW 13 20 7 11 1022.7 1022.7 0.2
31/08:00am 13.3 11.8 13.0 98 0.2 NNW 13 20 7 11 1022.3 1022.3 0.2
31/07:30am 13.3 11.0 13.1 99 0.1 NNW 17 28 9 15 1022.1 1022.1 0.2
31/07:00am 11.3 8.8 11.1 99 0.1 NNW 15 20 8 11 1022.2 1022.2 0.2
31/06:30am 9.6 7.8 9.5 99 0.0 NNW 9 13 5 7 1021.8 1021.8 0.2
31/06:00am 9.9 8.2 9.8 99 0.1 N 9 13 5 7 1021.4 1021.4 0.2
31/05:30am 10.2 7.4 10.0 99 0.1 NNW 15 19 8 10 1021.1 1021.1 0.2
31/05:00am 9.7 7.1 9.4 98 0.1 NNW 13 19 7 10 1020.8 1020.8 0.2
31/04:30am 9.9 7.8 9.6 98 0.2 NNW 11 15 6 8 1020.9 1020.9 0.2
31/04:00am 10.5 8.9 10.2 98 0.2 NNW 9 15 5 8 1021.0 1021.0 0.2
31/03:30am 11.3 9.2 11.1 99 0.1 NNW 13 20 7 11 1021.5 1021.5 0.2
31/03:00am 11.0 8.8 10.7 98 0.2 NNW 13 20 7 11 1021.4 1021.4 0.2
31/02:30am 11.3 9.2 11.0 98 0.2 NNW 13 17 7 9 1021.6 1021.6 0.2
31/02:00am 11.8 10.6 11.5 98 0.2 NNW 9 15 5 8 1022.3 1022.3 0.2
31/01:30am 11.9 10.7 11.7 99 0.1 NNW 9 17 5 9 1022.7 1022.7 0.2
31/01:00am 11.6 9.6 11.4 99 0.1 NNW 13 20 7 11 1022.7 1022.7 0.0
31/12:30am 11.5 9.8 11.2 98 0.2 NNW 11 15 6 8 1022.5 1022.5 0.0
31/12:00am 11.7 9.7 11.4 98 0.2 NNW 13 17 7 9 1022.9 1022.9 0.0
 
Date/Time
EST
Temp
°C
App
Temp
°C
Dew
Point
Rel
Hum
%
Delta-T
°C
Wind Press
QNH
hPa
Press
MSL
hPa
Rain
since 9 am
mm
Dir
 
Spd
km/h
Gust
km/h
Spd
kts
Gust
kts
30/11:30pm 11.7 9.7 11.4 98 0.2 NNW 13 17 7 9 1023.0 1023.0 0.0
30/11:00pm 12.2 10.3 11.9 98 0.2 N 13 17 7 9 1023.1 1023.1 0.0
30/10:30pm 12.7 11.0 12.4 98 0.2 N 13 19 7 10 1023.4 1023.4 0.0
30/10:00pm 13.0 11.4 12.7 98 0.2 N 13 20 7 11 1023.6 1023.6 0.0
30/09:30pm 13.8 11.3 13.5 98 0.2 N 19 22 10 12 1023.7 1023.7 0.0
30/09:00pm 14.1 11.7 13.8 98 0.2 N 19 33 10 18 1023.4 1023.4 0.0
30/08:30pm 14.1 11.5 13.8 98 0.2 N 20 28 11 15 1023.4 1023.4 0.0
30/08:00pm 14.0 11.9 13.7 98 0.2 N 17 26 9 14 1023.7 1023.7 0.0
30/07:30pm 14.0 12.7 13.7 98 0.2 N 13 20 7 11 1023.8 1023.8 0.0
30/07:00pm 14.2 12.9 13.7 97 0.3 N 13 19 7 10 1023.8 1023.8 0.0
30/06:30pm 14.3 13.0 13.8 97 0.3 NNE 13 17 7 9 1023.8 1023.8 0.0
30/06:00pm 14.5 13.3 13.9 96 0.3 NNE 13 17 7 9 1023.9 1023.9 0.0
30/05:30pm 15.3 14.2 14.2 93 0.6 NNE 13 19 7 10 1023.9 1023.9 0.0
30/05:00pm 16.0 15.2 14.0 88 1.1 N 11 15 6 8 1024.0 1024.0 0.0
30/04:30pm 16.9 16.4 13.8 82 1.8 NNE 9 17 5 9 1024.0 1024.0 0.0
30/04:00pm 17.5 16.2 13.6 78 2.2 NE 13 19 7 10 1023.5 1023.5 0.0
30/03:30pm 17.7 16.3 13.4 76 2.4 ENE 13 19 7 10 1023.5 1023.5 0.0
30/03:00pm 18.7 18.2 13.8 73 2.8 ENE 9 15 5 8 1023.8 1023.8 0.0
30/02:30pm 18.5 17.5 13.4 72 2.9 E 11 17 6 9 1024.1 1024.1 0.0
30/02:00pm 18.8 18.2 13.4 71 3.1 ESE 9 13 5 7 1024.5 1024.5 0.0
30/01:30pm 18.5 17.4 13.1 71 3.1 ESE 11 17 6 9 1025.0 1025.0 0.0
30/01:00pm 18.9 18.6 13.3 70 3.2 S 7 13 4 7 1025.5 1025.5 0.0
30/12:30pm 18.3 18.2 13.8 75 2.6 SSW 7 13 4 7 1026.1 1026.1 0.0
30/12:00pm 16.9 16.6 13.4 80 2.0 ESE 7 9 4 5 1026.7 1026.7 0.0
30/11:30am 16.9 15.7 12.8 77 2.3 SSE 11 13 6 7 1027.1 1027.1 0.0
30/11:00am 18.1 18.1 13.6 75 2.5 WSW 6 9 3 5 1027.6 1027.6 0.0
30/10:30am 17.2 16.8 13.1 77 2.3 SW 7 13 4 7 1028.0 1028.0 0.0
30/10:00am 16.1 15.6 12.7 80 1.9 WSW 7 11 4 6 1028.2 1028.2 0.0
30/09:30am 15.2 14.1 13.1 87 1.2 WSW 11 17 6 9 1028.4 1028.4 0.0
30/09:00am 14.5 13.5 13.4 93 0.6 W 11 19 6 10 1028.6 1028.6 1.2
30/08:30am 12.6 11.2 12.1 97 0.3 W 11 15 6 8 1028.5 1028.5 1.2
30/08:00am 11.2 9.4 10.7 97 0.3 W 11 17 6 9 1028.3 1028.3 1.2
30/07:30am 11.2 9.0 10.9 98 0.2 W 13 17 7 9 1028.0 1028.0 1.2
30/07:00am 11.0 9.2 10.7 98 0.2 W 11 15 6 8 1027.7 1027.7 1.2
30/06:30am 10.8 9.3 10.5 98 0.2 W 9 11 5 6 1027.6 1027.6 1.2
30/06:00am 10.8 9.3 10.5 98 0.2 NW 9 11 5 6 1027.3 1027.3 1.2
30/05:30am 11.1 9.3 10.8 98 0.2 W 11 17 6 9 1027.3 1027.3 1.2
30/05:00am 11.0 8.8 10.7 98 0.2 W 13 17 7 9 1027.2 1027.2 1.2
30/04:30am 11.0 8.8 10.7 98 0.2 WSW 13 19 7 10 1027.4 1027.4 1.2
30/04:00am 11.2 9.0 10.9 98 0.2 W 13 17 7 9 1027.4 1027.4 1.2
30/03:30am 11.6 9.5 11.3 98 0.2 WSW 13 20 7 11 1027.6 1027.6 1.2
30/03:00am 11.8 9.8 11.5 98 0.2 W 13 20 7 11 1028.0 1028.0 1.2
30/02:30am 12.0 10.1 11.7 98 0.2 WSW 13 17 7 9 1028.2 1028.2 1.2
30/02:00am 12.2 10.3 11.9 98 0.2 SW 13 19 7 10 1028.5 1028.5 1.2
30/01:30am 12.3 10.9 12.1 99 0.1 WSW 11 19 6 10 1028.6 1028.6 1.2
30/01:00am 12.6 10.5 12.3 98 0.2 SW 15 20 8 11 1029.1 1029.1 1.2
30/12:30am 12.4 10.6 12.1 98 0.2 W 13 15 7 8 1029.2 1029.2 1.0
30/12:00am 12.6 11.6 12.3 98 0.2 SW 9 13 5 7 1029.3 1029.3 0.4
 
Date/Time
EST
Temp
°C
App
Temp
°C
Dew
Point
Rel
Hum
%
Delta-T
°C
Wind Press
QNH
hPa
Press
MSL
hPa
Rain
since 9 am
mm
Dir
 
Spd
km/h
Gust
km/h
Spd
kts
Gust
kts
29/11:30pm 12.3 10.4 11.8 97 0.3 WSW 13 17 7 9 1029.5 1029.5 0.0
29/11:00pm 12.6 10.8 12.1 97 0.3 WSW 13 17 7 9 1029.9 1029.8 0.0
29/10:30pm 12.9 11.0 11.8 93 0.6 WSW 13 17 7 9 1030.1 1030.0 0.0
29/10:00pm 13.3 11.4 11.7 90 0.8 WSW 13 17 7 9 1030.0 1029.9 0.0
29/09:30pm 13.6 12.5 11.8 89 1.0 WSW 9 13 5 7 1030.1 1030.0 0.0
29/09:00pm 14.0 11.8 12.0 88 1.1 SW 15 19 8 10 1030.1 1030.0 0.0
29/08:30pm 14.2 12.7 11.9 86 1.2 SW 11 17 6 9 1029.9 1029.8 0.0
29/08:00pm 14.4 12.5 11.9 85 1.3 SW 13 20 7 11 1030.0 1029.9 0.0
29/07:30pm 14.9 11.9 11.9 82 1.6 SSW 19 30 10 16 1030.0 1029.9 0.0
29/07:00pm 15.1 12.4 11.7 80 1.8 SW 17 28 9 15 1029.9 1029.8 0.0
29/06:30pm 14.9 12.3 11.9 82 1.6 SSW 17 20 9 11 1029.7 1029.7 0.0
29/06:00pm 15.2 12.5 11.8 80 1.8 SSW 17 22 9 12 1029.4 1029.4 0.0
29/05:30pm 15.3 12.5 11.5 78 2.0 SSW 17 24 9 13 1029.1 1029.1 0.0
29/05:00pm 15.9 13.0 11.1 73 2.6 SSW 17 22 9 12 1029.0 1029.0 0.0
29/04:30pm 16.2 13.3 10.9 71 2.8 SSW 17 24 9 13 1028.8 1028.8 0.0
29/04:00pm 16.9 13.7 11.4 70 3.0 S 19 28 10 15 1028.9 1028.9 0.0
29/03:30pm 17.1 13.8 10.9 67 3.3 S 19 26 10 14 1028.8 1028.8 0.0
29/03:00pm 17.5 14.0 10.1 62 3.9 S 19 26 10 14 1028.9 1028.9 0.0
29/02:30pm 18.0 14.0 9.1 56 4.7 S 20 28 11 15 1029.0 1029.0 0.0
29/02:00pm 18.2 14.4 9.0 55 4.8 S 19 28 10 15 1029.3 1029.3 0.0
29/01:30pm 18.0 13.5 8.6 54 4.9 S 22 32 12 17 1029.5 1029.5 0.0
29/01:00pm 18.2 14.2 9.0 55 4.8 S 20 30 11 16 1030.0 1029.9 0.0
29/12:30pm 17.9 13.8 8.7 55 4.8 SSW 20 30 11 16 1030.7 1030.6 0.0
29/12:00pm 17.7 13.6 8.8 56 4.6 S 20 28 11 15 1031.2 1031.1 0.0
29/11:30am 17.5 14.0 7.3 51 5.1 SSW 15 22 8 12 1031.7 1031.6 0.0
29/11:00am 16.8 13.2 6.9 52 4.9 SW 15 24 8 13 1032.2 1032.1 0.0
29/10:30am 16.1 13.0 7.1 55 4.5 SW 13 22 7 12 1032.6 1032.5 0.0
29/10:00am 14.9 12.1 7.0 59 3.8 WSW 11 19 6 10 1032.9 1032.8 0.0
29/09:30am 13.3 9.4 5.2 58 3.8 W 15 20 8 11 1033.2 1033.1 0.0
29/09:00am 12.2 7.7 4.4 59 3.5 W 17 24 9 13 1033.3 1033.2 0.0
29/08:30am 11.3 7.1 3.8 60 3.3 W 15 22 8 12 1033.2 1033.1 0.0
29/08:00am 9.9 5.6 3.4 64 2.8 W 15 20 8 11 1032.7 1032.6 0.0
29/07:30am 8.8 4.0 2.6 65 2.6 W 17 22 9 12 1032.5 1032.4 0.0
29/07:00am 7.7 3.2 2.4 69 2.2 W 15 22 8 12 1032.5 1032.4 0.0
29/06:30am 8.3 3.0 2.1 65 2.6 W 19 24 10 13 1032.0 1031.9 0.0
29/06:00am 8.2 3.3 2.2 66 2.5 W 17 24 9 13 1031.9 1031.8 0.0
29/05:30am 8.3 2.8 2.1 65 2.6 W 20 26 11 14 1031.4 1031.3 0.0
29/05:00am 7.9 3.4 2.2 67 2.3 W 15 20 8 11 1031.2 1031.1 0.0
29/04:30am 8.4 3.2 2.4 66 2.5 W 19 24 10 13 1031.0 1030.9 0.0
29/04:00am 8.4 3.2 2.6 67 2.4 W 19 24 10 13 1030.9 1030.8 0.0
29/03:30am 8.1 3.3 2.6 68 2.3 W 17 22 9 12 1030.8 1030.7 0.0
29/03:00am 9.2 4.0 2.5 63 2.8 W 19 24 10 13 1031.0 1030.9 0.0
29/02:30am 9.2 4.0 2.5 63 2.8 W 19 24 10 13 1030.9 1030.8 0.0
29/02:00am 9.5 4.2 3.0 64 2.8 W 20 28 11 15 1031.0 1030.9 0.0
29/01:30am 9.6 4.6 3.6 66 2.6 W 19 28 10 15 1031.1 1031.0 0.0
29/01:00am 10.2 5.2 3.7 64 2.8 W 19 24 10 13 1031.1 1031.0 0.0
29/12:30am 10.4 5.2 3.7 63 3.0 W 20 24 11 13 1031.2 1031.1 0.0
29/12:00am 10.9 5.8 3.0 58 3.4 WSW 19 26 10 14 1031.2 1031.1 0.0
 
Date/Time
EST
Temp
°C
App
Temp
°C
Dew
Point
Rel
Hum
%
Delta-T
°C
Wind Press
QNH
hPa
Press
MSL
hPa
Rain
since 9 am
mm
Dir
 
Spd
km/h
Gust
km/h
Spd
kts
Gust
kts
28/11:30pm 11.4 6.3 2.9 56 3.7 WSW 19 24 10 13 1031.1 1031.0 0.0
28/11:00pm 11.6 6.5 2.9 55 3.8 WSW 19 22 10 12 1031.3 1031.2 0.0
28/10:30pm 11.7 6.6 3.2 56 3.7 WSW 19 24 10 13 1031.4 1031.3 0.0
28/10:00pm 11.6 6.6 3.6 58 3.5 WSW 19 20 10 11 1031.2 1031.1 0.0
28/09:30pm 11.8 6.9 4.1 59 3.5 WSW 19 20 10 11 1031.3 1031.2 0.0
28/09:00pm 11.7 7.2 4.2 60 3.4 WSW 17 20 9 11 1031.4 1031.3 0.0
28/08:30pm 12.5 8.0 4.2 57 3.8 WSW 17 20 9 11 1031.3 1031.2 0.0
28/08:00pm 12.2 7.4 4.4 59 3.5 WSW 19 22 10 12 1031.3 1031.2 0.0
28/07:30pm 12.0 7.9 4.2 59 3.5 WSW 15 19 8 10 1031.2 1031.1 0.0
28/07:00pm 12.1 8.4 4.6 60 3.4 WSW 13 19 7 10 1030.9 1030.8 0.0
28/06:30pm 11.9 8.6 4.4 60 3.4 WSW 11 13 6 7 1030.6 1030.5 0.0
28/06:00pm 12.4 9.1 4.6 59 3.5 WSW 11 15 6 8 1030.4 1030.3 0.0
28/05:30pm 12.0 8.7 4.7 61 3.3 SSW 11 17 6 9 1030.1 1030.0 0.0
28/05:00pm 12.4 9.2 5.1 61 3.3 SSW 11 15 6 8 1029.9 1029.8 0.0
28/04:30pm 13.5 9.6 5.2 57 3.9 SSW 15 20 8 11 1029.7 1029.7 0.0
28/04:00pm 14.8 10.9 5.3 53 4.5 SSW 15 22 8 12 1029.5 1029.5 0.0
28/03:30pm 15.2 10.4 4.6 49 5.0 S 19 28 10 15 1029.5 1029.5 0.0

Other Formats:

Comma delimited format used in spreadsheet applications
http://www.bom.gov.au/fwo/IDN60801/IDN60801.94598.axf

JavaScript Object Notation format (JSON) in row-major order
http://www.bom.gov.au/fwo/IDN60801/IDN60801.94598.json